AirNav   Pilot Hours Calculator
 
 950 users online  

WN10 Mount St Helen's Aero Ranch Airport
Cougar, Washington, USA

GOING TO COUGAR?


FAA INFORMATION EFFECTIVE 09 SEPTEMBER 2021

Location

FAA Identifier: WN10
Lat/Long: 45-59-36.3980N 122-22-46.3510W
45-59.606633N 122-22.772517W
45.9934439,-122.3795419
(estimated)
Elevation: 450 ft. / 137 m (estimated)
Variation: 20E (1985)
From city: 5 miles SW of COUGAR, WA
Time zone: UTC -7 (UTC -8 during Standard Time)
Zip code: 98603

Airport Operations

Airport use: Private use. Permission required prior to landing
Activation date: 03/1982
Control tower: no
ARTCC: SEATTLE CENTER
FSS: SEATTLE FLIGHT SERVICE STATION
Attendance: APR-OCT 0600-2200
Wind indicator: yes
Segmented circle: no

Airport Communications

  • MULTICOM 122.9 AVBL

Nearby radio navigation aids

VOR radial/distance  VOR name  Freq  Var
BTGr010/17.2BATTLE GROUND VORTAC116.6021E

 
NDB name  Hdg/Dist  Freq  Var  ID
BANKS036/35.435616EPND .--. -. -..

Airport Services

Runway Information

Runway 7/25

Dimensions: 2600 x 100 ft. / 792 x 30 m
Surface: turf
RUNWAY 7  RUNWAY 25
Traffic pattern: leftleft
Obstructions: 8 ft. fence35 ft. trees

Airport Ownership and Management from official FAA records

Ownership: Privately-owned
Owner: GEORGE ALBERTSON
11909 LEWIS RIVER RD
ARIEL, WA 98603
Phone 206-231-4223
Manager: GEORGE ALBERTSON
11869 LEWIS RIVER RD
ARIEL, WA 98603
Phone 206-231-4223

Airport Operational Statistics

Aircraft based on the field: 7
Single engine airplanes: 6
Multi engine airplanes: 1
    

Additional Remarks

CATTLE MAY BE ON RWY, ESPECIALLY NOV-MAR
FOR CD CTC PORTLAND APCH AT 503-493-7545.

Instrument Procedures

There are no published instrument procedures at WN10.

Some nearby airports with instrument procedures:

KKLS - Southwest Washington Regional Airport (23 nm W)
KSPB - Scappoose Airport (24 nm SW)
KVUO - Pearson Field Airport (25 nm SW)
KPDX - Portland International Airport (26 nm S)
KTTD - Portland-Troutdale Airport (27 nm S)
 
Loc | Ops | Rwys | IFR | FBO | Links
Com | Nav | Svcs | Stats | Notes
Area around WN10 (Mount St Helen's Aero Ranch Airport)
 
Road maps at: MapQuest Bing Google
 
Aerial photo
No photo
 
Sectional chart

 
Airport distance calculator
Flying to Mount St Helen's Aero Ranch Airport? Find the distance to fly.

From to WN10

Sunrise and sunset
Times for 20-Sep-2021
 Local
(UTC-7)
 Zulu
(UTC)
Morning civil twilight06:2513:25
Sunrise06:5513:55
Sunset19:1102:11
Evening civil twilight19:4102:41

Current date and time
Zulu (UTC)  21-Sep-2021 03:40:07
Local (UTC-7)  20-Sep-2021 20:40:07
 
METAR
KKLS 
23nm W 
210256Z AUTO 00000KT 10SM CLR 16/12 A3031 RMK AO2 SLP268 T01610117 55003
KSPB 
24nm SW 
210253Z AUTO 30004KT 10SM CLR 18/10 A3028 RMK AO2 SLP252 T01780100 55006
KVUO 
25nm SW 
210253Z AUTO 31005KT 10SM CLR 19/10 A3027 RMK AO2 SLP252 T01940100 55004
KPDX 
26nm S 
210253Z 29006KT 10SM CLR 19/11 A3028 RMK AO2 SLP253 T01940106 55004
KTTD 
27nm S 
210253Z 26004KT 10SM CLR 19/11 A3027 RMK AO2 SLP249 T01940111 55005
KHIO 
36nm SW 
210253Z 33005KT 10SM CLR 16/10 A3028 RMK AO2 SLP255 T01610100 55005
K4S2 
40nm SE 
210315Z AUTO 00000KT 10SM CLR 13/10 A3030 RMK AO2
TAF
KPDX 
26nm S 
202040Z 2021/2118 VRB04KT P6SM FEW120 FM210000 35006KT P6SM SKC FM210500 VRB04KT P6SM SKC FM211700 04006KT P6SM SKC
KTTD 
27nm S 
201730Z 2018/2118 VRB03KT P6SM OVC015 FM201900 VRB04KT P6SM FEW150 FM210000 33007KT P6SM SKC FM210900 07010KT P6SM SKC
NOTAMs
Click for the latest NOTAMs
NOTAMs are issued by the DoD/FAA and will open in a separate window not controlled by AirNav.

 

 
 

Would you like to see your business listed on this page?

 If your business provides an interesting product or service to pilots, flight crews, aircraft, or users of the Mount St Helen's Aero Ranch Airport, you should consider listing it here.  To start the listing process, click on the button below
 
Add a business
 

Other Pages about Mount St Helen's Aero Ranch Airport

Update a link
 
Copyright © AirNav, LLC. All rights reserved. Privacy Policy  Contact